Meldrum Bay, Ontario

2:31 AM EST on December 11, 2016 (GMT -0500)
| | Change Station

Elev -9999 ft 0.00 °N, 0.00 °E | Updated 0 second ago

Overcast
Overcast
°F
Feels Like °F
N
Wind Variable Wind from North
Gusts mph

Today
High -- | Low -- °F
--% Chance of Precip.
Yesterday
High -- | Low -- °F
Precip. -- in
Pressure 30.32 in
Visibility 9.0 miles
Clouds Scattered Clouds 3700 ft
Mostly Cloudy 5500 ft
Dew Point Not available.
Humidity Not available.
Rainfall --
Snow Depth Not available.
8:04 AM 4:47 PM
Waxing Gibbous, 89% visible
METAR CYZE 110700Z AUTO 11003KT 9SM SCT037 BKN055 M12/M13 A3027 RMK SLP265
Pressure 30.32 in
Visibility 9.0 miles
Clouds Scattered Clouds 3700 ft
Mostly Cloudy 5500 ft
Dew Point Not available.
Humidity Not available.
Rainfall --
Snow Depth Not available.
8:04 AM 4:47 PM
Waxing Gibbous, 89% visible
METAR CYZE 110700Z AUTO 11003KT 9SM SCT037 BKN055 M12/M13 A3027 RMK SLP265

10-Day Weather Forecast

Almanac

Astronomy

Dec. 11, 2016 Rise Set
Actual Time
Civil Twilight
Nautical Twilight
Astronomical Twilight
Moon
Length of Visible Light
Length of Day
Tomorrow will be .
, % of the Moon is Illuminated

Today's Extremes

Country Highs Country Lows

Community

WunderPhotos

Upload Photos

1,956,707 photos uploaded!

WunderBlog® & News

Nearby

Air Quality

  Air Quality AQ Index Pollutant
Not available.

Snow Depth

Station Depth Elevation

Earthquake Activity

City Distance Mag. Time & Date
Minimum magnitude displayed is 2.5.

Coastal Water Temperatures

Place Temperature

Stations

Nearby Weather Stations

Station Location Temp. Windchill Dew Point Humidity Wind Precip. Elev Updated Type
                   

Watches & Warnings

There are currently no watches in effect.